createdAt,value
2023-05-05T00:01:10.962Z,0.98
2023-05-05T00:03:37.683Z,1.10
2023-05-05T00:06:05.437Z,1.20
2023-05-05T00:08:32.258Z,1.00
2023-05-05T00:10:59.133Z,1.10
2023-05-05T00:13:25.836Z,1.13
2023-05-05T00:15:53.649Z,1.00
2023-05-05T00:18:21.195Z,1.10
2023-05-05T00:20:48.214Z,1.10
2023-05-05T00:23:15.864Z,1.02
2023-05-05T00:25:42.563Z,1.10
2023-05-05T00:28:09.371Z,0.98
2023-05-05T00:30:37.148Z,1.10
2023-05-05T00:33:03.991Z,0.93
2023-05-05T00:35:30.593Z,1.00
2023-05-05T00:37:57.224Z,1.10
2023-05-05T00:40:25.046Z,1.17
2023-05-05T00:42:52.088Z,1.05
2023-05-05T00:45:19.772Z,1.10
2023-05-05T00:47:53.519Z,1.10
2023-05-05T00:50:31.198Z,1.20
2023-05-05T00:53:03.161Z,1.10
2023-05-05T00:55:30.803Z,1.08
2023-05-05T00:57:58.753Z,1.02
2023-05-05T01:00:25.890Z,1.10
2023-05-05T01:02:52.836Z,1.05
2023-05-05T01:05:21.578Z,1.10
2023-05-05T01:08:14.014Z,1.05
2023-05-05T01:10:51.834Z,0.90
2023-05-05T01:13:49.805Z,1.05
2023-05-05T01:16:27.220Z,1.00
2023-05-05T01:19:18.278Z,1.00
2023-05-05T01:21:53.587Z,0.90
2023-05-05T01:25:17.798Z,1.08
2023-05-05T01:27:44.813Z,1.00
2023-05-05T01:30:39.277Z,1.10
2023-05-05T01:33:10.986Z,1.05
2023-05-05T01:35:45.569Z,1.00
2023-05-05T01:38:16.907Z,1.00
2023-05-05T01:40:48.754Z,0.95
2023-05-05T01:43:17.837Z,1.20
2023-05-05T01:45:46.598Z,1.00
2023-05-05T01:48:16.792Z,0.95
2023-05-05T01:50:46.593Z,1.10
2023-05-05T01:53:13.454Z,1.02
2023-05-05T01:55:41.419Z,0.93
2023-05-05T01:58:09.596Z,0.95
2023-05-05T02:00:36.394Z,0.90
2023-05-05T02:03:06.473Z,1.00
2023-05-05T02:05:33.936Z,1.10
2023-05-05T02:08:01.288Z,1.20
2023-05-05T02:10:28.595Z,0.90
2023-05-05T02:12:56.172Z,1.10
2023-05-05T02:15:24.905Z,0.90
2023-05-05T02:17:52.826Z,1.00
2023-05-05T02:20:20.451Z,1.00
2023-05-05T02:22:47.314Z,1.05
2023-05-05T02:25:14.255Z,1.00
2023-05-05T02:27:43.609Z,0.98
2023-05-05T02:30:13.603Z,1.05
2023-05-05T02:32:45.167Z,1.00
2023-05-05T02:35:19.623Z,0.93
2023-05-05T02:38:02.523Z,1.20
2023-05-05T02:40:32.842Z,1.00
2023-05-05T02:43:04.637Z,1.08
2023-05-05T02:45:31.270Z,1.10
2023-05-05T02:48:01.514Z,1.10
2023-05-05T02:50:28.210Z,1.00
2023-05-05T02:52:55.124Z,1.00
2023-05-05T02:55:21.697Z,0.98
2023-05-05T02:57:54.931Z,1.00
2023-05-05T03:00:43.642Z,1.05
2023-05-05T03:03:22.037Z,0.98
2023-05-05T03:05:56.915Z,0.95
2023-05-05T03:08:31.424Z,1.00
2023-05-05T03:11:13.463Z,1.00
2023-05-05T03:13:43.912Z,0.98
2023-05-05T03:16:11.670Z,0.90
2023-05-05T03:18:39.799Z,1.00
2023-05-05T03:21:10.131Z,1.00
2023-05-05T03:23:36.825Z,0.90
2023-05-05T03:26:03.458Z,1.08
2023-05-05T03:28:30.158Z,1.00
2023-05-05T03:30:56.777Z,0.90
2023-05-05T03:33:23.404Z,0.88
2023-05-05T03:35:50.035Z,1.17
2023-05-05T03:38:16.579Z,0.80
2023-05-05T03:40:44.804Z,1.10
2023-05-05T03:43:11.810Z,1.00
2023-05-05T03:45:38.669Z,1.05
2023-05-05T03:48:06.033Z,0.98
2023-05-05T03:50:32.667Z,1.08
2023-05-05T03:52:59.228Z,1.10
2023-05-05T03:55:25.828Z,1.02
2023-05-05T03:57:52.464Z,0.95
2023-05-05T04:00:19.335Z,0.90
2023-05-05T04:02:46.044Z,1.10
2023-05-05T04:05:12.782Z,1.40
2023-05-05T04:07:39.388Z,1.33
2023-05-05T04:10:07.268Z,1.45
2023-05-05T04:12:34.107Z,1.40
2023-05-05T04:15:00.713Z,1.30
2023-05-05T04:17:27.281Z,1.42
2023-05-05T04:19:53.950Z,1.40
2023-05-05T04:22:20.518Z,1.30
2023-05-05T04:24:47.511Z,1.63
2023-05-05T04:27:14.078Z,1.30
2023-05-05T04:29:40.611Z,1.15
2023-05-05T04:32:07.224Z,1.10
2023-05-05T04:34:33.926Z,1.00
2023-05-05T04:37:00.488Z,1.00
2023-05-05T04:39:27.142Z,1.10
2023-05-05T04:41:53.729Z,1.27
2023-05-05T04:44:20.596Z,1.10
2023-05-05T04:46:47.196Z,1.30
2023-05-05T04:49:13.830Z,1.10
2023-05-05T04:51:43.592Z,1.10
2023-05-05T04:54:10.330Z,1.02
2023-05-05T04:56:37.088Z,1.10
2023-05-05T04:59:03.761Z,1.30
2023-05-05T05:01:30.437Z,1.38
2023-05-05T05:03:57.249Z,0.90
2023-05-05T05:06:24.031Z,0.93
2023-05-05T05:08:50.567Z,1.05
2023-05-05T05:11:17.113Z,1.10
2023-05-05T05:13:43.696Z,1.10
2023-05-05T05:16:10.317Z,1.02
2023-05-05T05:18:36.929Z,0.90
2023-05-05T05:21:03.713Z,1.17
2023-05-05T05:23:30.645Z,0.95
2023-05-05T05:25:57.502Z,1.20
2023-05-05T05:28:24.124Z,1.10
2023-05-05T05:30:51.898Z,1.00
2023-05-05T05:33:18.838Z,1.13
2023-05-05T05:35:45.913Z,1.10
2023-05-05T05:38:12.500Z,0.90
2023-05-05T05:40:39.160Z,1.05
2023-05-05T05:43:06.348Z,0.90
2023-05-05T05:45:32.930Z,1.02
2023-05-05T05:47:59.551Z,1.20
2023-05-05T05:50:28.405Z,1.00
2023-05-05T05:52:55.478Z,1.20
2023-05-05T05:55:22.182Z,1.17
2023-05-05T05:57:48.731Z,1.15
2023-05-05T06:00:18.153Z,1.23
2023-05-05T06:02:44.867Z,1.05
2023-05-05T06:05:12.898Z,1.23
2023-05-05T06:07:39.494Z,1.13
2023-05-05T06:10:22.932Z,1.35
2023-05-05T06:12:53.128Z,1.20
2023-05-05T06:15:19.747Z,1.10
2023-05-05T06:17:46.493Z,1.33
2023-05-05T06:20:13.837Z,1.30
2023-05-05T06:22:40.558Z,1.17
2023-05-05T06:25:07.481Z,1.42
2023-05-05T06:27:34.112Z,1.20
2023-05-05T06:30:00.704Z,1.30
2023-05-05T06:32:27.279Z,1.23
2023-05-05T06:34:53.834Z,1.40
2023-05-05T06:37:20.597Z,1.30
2023-05-05T06:39:47.283Z,1.15
2023-05-05T06:42:13.842Z,1.15
2023-05-05T06:44:40.434Z,1.33
2023-05-05T06:47:07.167Z,1.27
2023-05-05T06:49:33.810Z,1.02
2023-05-05T06:52:00.421Z,1.08
2023-05-05T06:54:26.969Z,1.40
2023-05-05T06:56:53.499Z,1.20
2023-05-05T06:59:20.112Z,1.10
2023-05-05T07:01:46.722Z,1.25
2023-05-05T07:04:13.299Z,1.35
2023-05-05T07:06:39.896Z,1.30
2023-05-05T07:09:06.540Z,1.30
2023-05-05T07:11:33.196Z,1.45
2023-05-05T07:13:59.812Z,1.15
2023-05-05T07:16:27.128Z,1.20
2023-05-05T07:18:53.798Z,1.10
2023-05-05T07:21:20.399Z,0.95
2023-05-05T07:23:47.663Z,1.20
2023-05-05T07:26:15.051Z,1.30
2023-05-05T07:28:42.985Z,1.10
2023-05-05T07:31:09.630Z,1.30
2023-05-05T07:33:36.383Z,1.25
2023-05-05T07:36:03.199Z,1.25
2023-05-05T07:38:29.900Z,1.30
2023-05-05T07:40:56.484Z,1.17
2023-05-05T07:43:23.065Z,1.30
2023-05-05T07:45:49.707Z,1.10
2023-05-05T07:48:16.274Z,1.08
2023-05-05T07:50:42.857Z,1.20
2023-05-05T07:53:14.550Z,1.08
2023-05-05T07:55:41.812Z,1.13
2023-05-05T07:58:08.973Z,1.10
2023-05-05T08:00:35.572Z,1.08
2023-05-05T08:03:02.328Z,1.20
2023-05-05T08:05:28.921Z,1.20
2023-05-05T08:07:55.456Z,1.10
2023-05-05T08:10:22.220Z,1.10
2023-05-05T08:12:49.098Z,1.20
2023-05-05T08:15:15.751Z,1.05
2023-05-05T08:17:53.121Z,0.93
2023-05-05T08:20:20.586Z,1.20
2023-05-05T08:22:47.986Z,1.20
2023-05-05T08:25:14.662Z,1.08
2023-05-05T08:27:42.171Z,1.00
2023-05-05T08:30:09.441Z,0.90
2023-05-05T08:32:36.229Z,1.00
2023-05-05T08:35:03.417Z,1.10
2023-05-05T08:37:30.398Z,1.02
2023-05-05T08:39:57.755Z,1.10
2023-05-05T08:42:36.229Z,1.00
2023-05-05T08:45:04.727Z,1.10
2023-05-05T08:47:32.236Z,1.02
2023-05-05T08:49:59.433Z,0.93
2023-05-05T08:52:32.487Z,1.10
2023-05-05T08:55:26.376Z,1.05
2023-05-05T08:57:57.681Z,1.10
2023-05-05T09:00:24.622Z,0.95
2023-05-05T09:02:52.442Z,0.98
2023-05-05T09:05:19.225Z,0.90
2023-05-05T09:07:47.086Z,1.05
2023-05-05T09:10:13.764Z,1.15
2023-05-05T09:12:41.145Z,1.45
2023-05-05T09:15:09.610Z,0.80
2023-05-05T09:17:36.705Z,1.10
2023-05-05T09:20:04.423Z,1.10
2023-05-05T09:22:34.034Z,1.20
2023-05-05T09:25:00.843Z,0.98
2023-05-05T09:27:27.657Z,0.98
2023-05-05T09:29:56.417Z,0.95
2023-05-05T09:32:24.373Z,0.90
2023-05-05T09:34:58.979Z,1.00
2023-05-05T09:37:30.206Z,1.02
2023-05-05T09:39:58.948Z,1.17
2023-05-05T09:42:25.494Z,0.90
2023-05-05T09:44:52.112Z,0.90
2023-05-05T09:47:29.472Z,1.00
2023-05-05T09:49:58.644Z,1.10
2023-05-05T09:52:25.541Z,1.00
2023-05-05T09:54:56.944Z,0.85
2023-05-05T09:57:27.528Z,0.90
2023-05-05T09:59:59.350Z,0.90
2023-05-05T10:02:33.122Z,1.00
2023-05-05T10:05:06.132Z,1.00
2023-05-05T10:07:33.092Z,1.00
2023-05-05T10:09:59.620Z,0.90
2023-05-05T10:12:27.721Z,1.00
2023-05-05T10:14:56.031Z,1.10
2023-05-05T10:17:23.563Z,1.00
2023-05-05T10:19:53.684Z,1.10
2023-05-05T10:22:23.454Z,0.88
2023-05-05T10:25:28.617Z,1.10
2023-05-05T10:28:00.760Z,1.00
2023-05-05T10:30:31.901Z,0.90
2023-05-05T10:33:31.207Z,1.10
2023-05-05T10:36:01.541Z,0.95
2023-05-05T10:38:30.661Z,0.90
2023-05-05T10:40:59.291Z,1.00
2023-05-05T10:43:27.612Z,0.98
2023-05-05T10:45:55.120Z,0.95
2023-05-05T10:48:47.129Z,1.00
2023-05-05T10:51:40.070Z,1.02
2023-05-05T10:54:30.461Z,1.05
2023-05-05T10:57:01.210Z,1.00
2023-05-05T10:59:36.822Z,1.05
2023-05-05T11:02:23.608Z,0.90
2023-05-05T11:05:17.841Z,0.93
2023-05-05T11:07:46.310Z,0.95
2023-05-05T11:10:14.543Z,1.00
2023-05-05T11:13:10.571Z,0.90
2023-05-05T11:15:37.948Z,1.08
2023-05-05T11:18:07.820Z,0.80
2023-05-05T11:20:40.729Z,1.08
2023-05-05T11:23:07.345Z,1.08
2023-05-05T11:25:36.214Z,0.95
2023-05-05T11:28:25.394Z,0.85
2023-05-05T11:30:54.924Z,0.90
2023-05-05T11:33:37.294Z,0.70
2023-05-05T11:36:08.830Z,0.80
2023-05-05T11:39:03.539Z,1.08
2023-05-05T11:41:38.706Z,0.75
2023-05-05T11:44:12.292Z,0.95
2023-05-05T11:47:04.466Z,0.93
2023-05-05T11:49:36.095Z,0.93
2023-05-05T11:52:04.631Z,0.90
2023-05-05T11:54:32.125Z,0.90
2023-05-05T11:57:05.690Z,1.10
2023-05-05T11:59:33.402Z,0.80
2023-05-05T12:02:00.600Z,1.00
2023-05-05T12:04:27.397Z,0.90
2023-05-05T12:06:55.364Z,0.88
2023-05-05T12:09:23.615Z,0.93
2023-05-05T12:11:54.977Z,0.77
2023-05-05T12:14:22.220Z,0.82
2023-05-05T12:16:58.755Z,1.08
2023-05-05T12:19:32.761Z,0.93
2023-05-05T12:22:03.944Z,0.90
2023-05-05T12:24:31.103Z,0.90
2023-05-05T12:27:13.438Z,1.00
2023-05-05T12:29:39.975Z,0.90
2023-05-05T12:32:06.691Z,0.90
2023-05-05T12:34:33.452Z,0.80
2023-05-05T12:37:00.873Z,0.90
2023-05-05T12:39:36.581Z,0.88
2023-05-05T12:42:06.358Z,0.93
2023-05-05T12:44:37.101Z,0.90
2023-05-05T12:47:04.106Z,0.90
2023-05-05T12:49:34.123Z,0.85
2023-05-05T12:52:00.970Z,0.95
2023-05-05T12:54:30.664Z,0.90
2023-05-05T12:56:57.261Z,0.85
2023-05-05T12:59:24.096Z,0.73
2023-05-05T13:01:52.568Z,0.65
2023-05-05T13:04:20.853Z,1.00
2023-05-05T13:06:49.774Z,0.90
2023-05-05T13:09:33.866Z,0.80
2023-05-05T13:12:02.828Z,0.80
2023-05-05T13:14:30.725Z,0.80
2023-05-05T13:16:57.653Z,1.00
2023-05-05T13:19:25.014Z,0.95
2023-05-05T13:21:56.501Z,0.80
2023-05-05T13:24:34.470Z,1.10
2023-05-05T13:27:09.486Z,1.02
2023-05-05T13:29:36.197Z,1.30
2023-05-05T13:32:02.899Z,1.10
2023-05-05T13:34:29.585Z,0.98
2023-05-05T13:36:56.267Z,1.00
2023-05-05T13:39:22.989Z,1.17
2023-05-05T13:41:49.575Z,1.00
2023-05-05T13:44:16.300Z,1.30
2023-05-05T13:46:43.046Z,1.30
2023-05-05T13:49:09.727Z,1.30
2023-05-05T13:51:38.062Z,1.10
2023-05-05T13:54:05.303Z,1.00
2023-05-05T13:56:32.643Z,1.23
2023-05-05T13:58:59.429Z,1.20
2023-05-05T14:01:26.107Z,1.15
2023-05-05T14:03:53.275Z,1.08
2023-05-05T14:06:20.638Z,1.30
2023-05-05T14:08:47.182Z,1.33
2023-05-05T14:11:14.171Z,1.30
2023-05-05T14:13:40.781Z,1.40
2023-05-05T14:16:07.498Z,1.40
2023-05-05T14:18:34.224Z,1.10
2023-05-05T14:21:00.766Z,1.10
2023-05-05T14:23:27.288Z,1.15
2023-05-05T14:25:54.516Z,1.52
2023-05-05T14:28:21.063Z,1.67
2023-05-05T14:30:47.600Z,1.65
2023-05-05T14:33:14.717Z,1.70
2023-05-05T14:35:41.312Z,1.80
2023-05-05T14:38:07.871Z,1.60
2023-05-05T14:40:34.476Z,1.70
2023-05-05T14:43:01.156Z,1.67
2023-05-05T14:45:29.461Z,1.70
2023-05-05T14:47:56.018Z,1.50
2023-05-05T14:50:22.659Z,1.80
2023-05-05T14:52:49.247Z,1.63
2023-05-05T14:55:15.831Z,1.77
2023-05-05T14:57:42.414Z,1.83
2023-05-05T15:00:10.855Z,1.80
2023-05-05T15:02:37.656Z,1.80
2023-05-05T15:05:05.072Z,1.60
2023-05-05T15:07:31.610Z,1.60
2023-05-05T15:09:58.188Z,1.90
2023-05-05T15:12:25.854Z,1.58
2023-05-05T15:14:52.578Z,1.45
2023-05-05T15:17:19.304Z,1.42
2023-05-05T15:19:45.922Z,1.58
2023-05-05T15:22:12.529Z,1.50
2023-05-05T15:24:39.233Z,1.50
2023-05-05T15:27:05.801Z,1.60
2023-05-05T15:29:32.400Z,1.50
2023-05-05T15:31:59.063Z,1.50
2023-05-05T15:34:26.136Z,1.30
2023-05-05T15:36:52.828Z,1.48
2023-05-05T15:39:19.506Z,1.40
2023-05-05T15:41:46.061Z,1.50
2023-05-05T15:44:12.825Z,1.60
2023-05-05T15:46:39.804Z,1.35
2023-05-05T15:49:06.619Z,1.70
2023-05-05T15:51:33.289Z,1.27
2023-05-05T15:54:00.195Z,1.60
2023-05-05T15:56:29.649Z,1.25
2023-05-05T15:58:56.798Z,1.40
2023-05-05T16:01:23.495Z,1.30
2023-05-05T16:03:50.237Z,1.27
2023-05-05T16:06:16.784Z,1.50
2023-05-05T16:08:43.540Z,1.30
2023-05-05T16:11:10.275Z,1.42
2023-05-05T16:13:38.796Z,1.40
2023-05-05T16:16:06.731Z,1.40
2023-05-05T16:18:33.474Z,1.30
2023-05-05T16:21:00.050Z,1.25
2023-05-05T16:23:26.866Z,1.30
2023-05-05T16:25:53.406Z,1.30
2023-05-05T16:28:20.027Z,1.58
2023-05-05T16:30:46.703Z,1.25
2023-05-05T16:33:13.248Z,1.40
2023-05-05T16:35:39.792Z,1.25
2023-05-05T16:38:06.535Z,1.08
2023-05-05T16:40:33.083Z,1.10
2023-05-05T16:42:59.598Z,1.27
2023-05-05T16:45:26.271Z,1.13
2023-05-05T16:47:54.524Z,1.52
2023-05-05T16:50:22.058Z,1.13
2023-05-05T16:52:49.078Z,1.40
2023-05-05T16:55:15.806Z,1.08
2023-05-05T16:57:42.471Z,1.30
2023-05-05T17:00:10.133Z,1.15
2023-05-05T17:02:36.691Z,1.08
2023-05-05T17:05:03.506Z,1.10
2023-05-05T17:07:30.207Z,1.33
2023-05-05T17:09:56.763Z,1.10
2023-05-05T17:12:23.543Z,1.30
2023-05-05T17:14:51.234Z,1.40
2023-05-05T17:17:18.129Z,1.13
2023-05-05T17:19:44.728Z,1.10
2023-05-05T17:22:11.328Z,1.10
2023-05-05T17:24:37.858Z,1.20
2023-05-05T17:27:04.392Z,1.10
2023-05-05T17:29:31.126Z,1.30
2023-05-05T17:31:57.789Z,1.25
2023-05-05T17:34:24.371Z,1.40
2023-05-05T17:36:51.001Z,1.15
2023-05-05T17:39:17.560Z,1.30
2023-05-05T17:41:44.114Z,1.20
2023-05-05T17:44:10.855Z,1.13
2023-05-05T17:46:37.555Z,1.02
2023-05-05T17:49:04.098Z,0.90
2023-05-05T17:51:31.305Z,1.25
2023-05-05T17:53:57.896Z,1.10
2023-05-05T17:56:24.465Z,0.95
2023-05-05T17:58:51.286Z,1.10
2023-05-05T18:01:24.960Z,1.10
2023-05-05T18:03:51.942Z,1.27
2023-05-05T18:06:18.913Z,1.00
2023-05-05T18:08:45.542Z,1.27
2023-05-05T18:11:12.173Z,1.08
2023-05-05T18:13:39.378Z,1.00
2023-05-05T18:16:06.476Z,0.90
2023-05-05T18:18:33.162Z,1.10
2023-05-05T18:20:59.827Z,0.95
2023-05-05T18:23:26.620Z,1.10
2023-05-05T18:25:53.482Z,1.23
2023-05-05T18:28:20.379Z,1.02
2023-05-05T18:30:46.903Z,1.02
2023-05-05T18:33:13.444Z,1.30
2023-05-05T18:35:40.299Z,1.10
2023-05-05T18:38:06.839Z,1.08
2023-05-05T18:40:33.755Z,1.00
2023-05-05T18:43:00.454Z,0.90
2023-05-05T18:45:27.042Z,0.95
2023-05-05T18:47:53.613Z,1.10
2023-05-05T18:50:20.246Z,1.00
2023-05-05T18:52:46.775Z,1.10
2023-05-05T18:55:13.458Z,1.05
2023-05-05T18:57:40.332Z,0.98
2023-05-05T19:00:07.470Z,1.00
2023-05-05T19:02:34.047Z,1.20
2023-05-05T19:05:00.761Z,1.00
2023-05-05T19:07:35.013Z,0.90
2023-05-05T19:10:14.738Z,0.95
2023-05-05T19:12:41.359Z,0.95
2023-05-05T19:15:08.660Z,0.90
2023-05-05T19:17:35.606Z,1.00
2023-05-05T19:20:02.865Z,1.00
2023-05-05T19:22:29.417Z,1.00
2023-05-05T19:24:55.977Z,1.08
2023-05-05T19:27:22.550Z,0.95
2023-05-05T19:29:52.252Z,0.90
2023-05-05T19:32:20.698Z,1.02
2023-05-05T19:34:47.592Z,0.90
2023-05-05T19:37:14.193Z,1.05
2023-05-05T19:39:42.964Z,1.00
2023-05-05T19:42:09.546Z,1.00
2023-05-05T19:44:36.086Z,0.90
2023-05-05T19:47:02.711Z,1.10
2023-05-05T19:49:29.240Z,0.98
2023-05-05T19:51:56.859Z,1.05
2023-05-05T19:54:24.487Z,0.98
2023-05-05T19:56:51.594Z,0.80
2023-05-05T19:59:18.206Z,0.80
2023-05-05T20:01:45.190Z,1.20
2023-05-05T20:04:11.862Z,1.00
2023-05-05T20:06:38.496Z,0.88
2023-05-05T20:09:05.236Z,0.90
2023-05-05T20:11:31.996Z,0.73
2023-05-05T20:13:58.790Z,0.80
2023-05-05T20:16:25.511Z,0.80
2023-05-05T20:18:52.196Z,1.00
2023-05-05T20:21:19.236Z,0.80
2023-05-05T20:23:46.411Z,0.90
2023-05-05T20:26:13.441Z,0.80
2023-05-05T20:28:42.533Z,0.80
2023-05-05T20:31:11.269Z,0.80
2023-05-05T20:33:37.891Z,0.90
2023-05-05T20:36:04.862Z,0.90
2023-05-05T20:38:31.509Z,0.82
2023-05-05T20:40:58.093Z,0.90
2023-05-05T20:43:25.298Z,0.85
2023-05-05T20:45:52.285Z,0.80
2023-05-05T20:48:19.190Z,0.77
2023-05-05T20:50:45.738Z,1.00
2023-05-05T20:53:15.286Z,0.90
2023-05-05T20:55:41.900Z,0.77
2023-05-05T20:58:08.510Z,0.80
2023-05-05T21:00:35.221Z,0.88
2023-05-05T21:03:04.841Z,0.80
2023-05-05T21:05:31.555Z,0.80
2023-05-05T21:08:00.494Z,0.75
2023-05-05T21:10:28.643Z,0.82
2023-05-05T21:12:55.421Z,0.68
2023-05-05T21:15:22.097Z,0.80
2023-05-05T21:17:48.793Z,0.77
2023-05-05T21:20:16.308Z,0.88
2023-05-05T21:22:42.940Z,0.80
2023-05-05T21:25:15.547Z,0.80
2023-05-05T21:27:42.839Z,0.70
2023-05-05T21:30:11.204Z,0.90
2023-05-05T21:32:38.736Z,0.88
2023-05-05T21:35:06.859Z,0.90
2023-05-05T21:37:33.718Z,0.88
2023-05-05T21:40:00.280Z,1.00
2023-05-05T21:42:29.362Z,0.80
2023-05-05T21:44:56.026Z,0.80
2023-05-05T21:47:22.820Z,0.63
2023-05-05T21:49:49.364Z,0.90
2023-05-05T21:52:17.042Z,0.70
2023-05-05T21:54:43.756Z,0.90
2023-05-05T21:57:10.306Z,0.90
2023-05-05T21:59:36.854Z,0.70
2023-05-05T22:02:03.487Z,0.73
2023-05-05T22:04:30.103Z,0.68
2023-05-05T22:06:56.707Z,0.73
2023-05-05T22:09:23.506Z,0.77
2023-05-05T22:11:51.110Z,0.80
2023-05-05T22:14:17.886Z,0.70
2023-05-05T22:16:44.544Z,0.80
2023-05-05T22:19:11.197Z,0.80
2023-05-05T22:21:37.761Z,0.70
2023-05-05T22:24:05.255Z,0.70
2023-05-05T22:26:31.782Z,0.90
2023-05-05T22:28:58.391Z,0.98
2023-05-05T22:31:25.020Z,0.80
2023-05-05T22:33:51.618Z,0.73
2023-05-05T22:36:18.212Z,0.80
2023-05-05T22:38:44.778Z,0.90
2023-05-05T22:41:11.398Z,0.73
2023-05-05T22:43:38.069Z,0.80
2023-05-05T22:46:04.779Z,0.70
2023-05-05T22:48:31.354Z,0.80
2023-05-05T22:50:57.917Z,0.70
2023-05-05T22:53:24.438Z,0.70
2023-05-05T22:55:51.650Z,0.80
2023-05-05T22:58:18.418Z,0.80
2023-05-05T23:00:45.014Z,0.80
2023-05-05T23:03:12.029Z,0.80
2023-05-05T23:05:38.604Z,1.00
2023-05-05T23:08:05.454Z,0.70
2023-05-05T23:10:32.087Z,0.70
2023-05-05T23:12:58.770Z,0.82
2023-05-05T23:15:25.393Z,0.70
2023-05-05T23:17:52.006Z,0.80
2023-05-05T23:20:18.883Z,0.70
2023-05-05T23:22:45.415Z,0.60
2023-05-05T23:25:12.335Z,0.80
2023-05-05T23:27:43.735Z,0.70
2023-05-05T23:30:10.872Z,0.70
2023-05-05T23:32:37.526Z,0.65
2023-05-05T23:35:04.426Z,0.82
2023-05-05T23:37:31.070Z,0.80
2023-05-05T23:39:57.641Z,0.90
2023-05-05T23:42:24.453Z,0.80
2023-05-05T23:44:50.998Z,0.80
2023-05-05T23:47:17.545Z,0.70
2023-05-05T23:49:44.241Z,0.73
2023-05-05T23:52:11.089Z,0.80
2023-05-05T23:54:37.619Z,0.70
2023-05-05T23:57:04.302Z,0.65
2023-05-05T23:59:30.828Z,0.75
